createdAt,value
2018-07-13T00:00:39.486Z,101519.80
2018-07-13T00:03:08.920Z,101519.39
2018-07-13T00:05:38.383Z,101523.60
2018-07-13T00:08:07.642Z,101525.72
2018-07-13T00:10:37.102Z,101519.41
2018-07-13T00:13:07.105Z,101526.13
2018-07-13T00:15:36.289Z,101526.55
2018-07-13T00:18:05.719Z,101524.91
2018-07-13T00:20:34.917Z,101522.81
2018-07-13T00:23:04.551Z,101525.34
2018-07-13T00:25:34.927Z,101515.69
2018-07-13T00:28:04.622Z,101519.86
2018-07-13T00:30:34.039Z,101522.39
2018-07-13T00:33:05.125Z,101518.61
2018-07-13T00:35:34.547Z,101521.98
2018-07-13T00:38:03.982Z,101520.68
2018-07-13T00:40:33.720Z,101524.08
2018-07-13T00:43:03.549Z,101518.62
2018-07-13T00:45:33.298Z,101518.19
2018-07-13T00:48:02.810Z,101520.30
2018-07-13T00:50:32.978Z,101521.11
2018-07-13T00:53:02.130Z,101521.98
2018-07-13T00:55:31.829Z,101516.96
2018-07-13T00:58:01.324Z,101514.43
2018-07-13T01:00:33.052Z,101519.47
2018-07-13T01:03:04.797Z,101522.39
2018-07-13T01:05:34.373Z,101513.58
2018-07-13T01:08:04.000Z,101519.05
2018-07-13T01:10:33.428Z,101515.27
2018-07-13T01:13:06.005Z,101516.53
2018-07-13T01:15:35.181Z,101515.27
2018-07-13T01:18:04.855Z,101511.47
2018-07-13T01:20:34.325Z,101514.86
2018-07-13T01:23:03.846Z,101519.88
2018-07-13T01:25:33.324Z,101521.58
2018-07-13T01:28:03.289Z,101521.99
2018-07-13T01:30:32.899Z,101519.05
2018-07-13T01:33:02.378Z,101519.48
2018-07-13T01:35:32.415Z,101517.37
2018-07-13T01:38:01.894Z,101523.67
2018-07-13T01:40:31.108Z,101524.53
2018-07-13T01:43:00.632Z,101530.82
2018-07-13T01:45:30.090Z,101527.44
2018-07-13T01:47:59.592Z,101524.51
2018-07-13T01:50:29.633Z,101522.42
2018-07-13T01:52:58.854Z,101523.26
2018-07-13T01:55:28.278Z,101522.00
2018-07-13T01:57:57.738Z,101527.46
2018-07-13T02:00:27.217Z,101527.89
2018-07-13T02:02:56.709Z,101524.92
2018-07-13T02:05:26.206Z,101528.27
2018-07-13T02:07:57.120Z,101531.19
2018-07-13T02:10:26.877Z,101526.16
2018-07-13T02:12:57.287Z,101525.75
2018-07-13T02:15:26.749Z,101524.91
2018-07-13T02:17:55.884Z,101533.29
2018-07-13T02:20:26.030Z,101530.38
2018-07-13T02:22:55.473Z,101529.52
2018-07-13T02:25:25.278Z,101528.67
2018-07-13T02:27:54.460Z,101532.47
2018-07-13T02:30:24.190Z,101533.31
2018-07-13T02:32:53.573Z,101534.52
2018-07-13T02:35:23.858Z,101531.22
2018-07-13T02:37:53.330Z,101531.17
2018-07-13T02:40:22.953Z,101531.16
2018-07-13T02:42:52.381Z,101531.60
2018-07-13T02:45:21.843Z,101539.16
2018-07-13T02:47:51.241Z,101533.72
2018-07-13T02:50:21.288Z,101534.56
2018-07-13T02:52:50.949Z,101537.48
2018-07-13T02:55:20.741Z,101534.09
2018-07-13T02:57:50.647Z,101539.59
2018-07-13T03:00:21.173Z,101534.13
2018-07-13T03:02:50.633Z,101534.58
2018-07-13T03:05:21.006Z,101539.16
2018-07-13T03:07:50.482Z,101538.75
2018-07-13T03:10:20.156Z,101534.13
2018-07-13T03:12:50.439Z,101539.61
2018-07-13T03:15:19.882Z,101541.27
2018-07-13T03:17:49.379Z,101539.16
2018-07-13T03:20:18.824Z,101545.02
2018-07-13T03:22:48.313Z,101541.69
2018-07-13T03:25:18.760Z,101545.04
2018-07-13T03:27:48.360Z,101542.52
2018-07-13T03:30:18.503Z,101544.20
2018-07-13T03:32:47.970Z,101545.45
2018-07-13T03:35:17.973Z,101545.91
2018-07-13T03:37:47.386Z,101543.80
2018-07-13T03:40:18.225Z,101540.42
2018-07-13T03:42:47.734Z,101538.34
2018-07-13T03:45:17.830Z,101537.89
2018-07-13T03:47:47.461Z,101542.08
2018-07-13T03:50:16.911Z,101547.94
2018-07-13T03:52:46.385Z,101548.80
2018-07-13T03:55:15.580Z,101552.19
2018-07-13T03:57:45.096Z,101556.35
2018-07-13T04:00:15.274Z,101558.44
2018-07-13T04:02:45.126Z,101557.59
2018-07-13T04:05:14.741Z,101558.46
2018-07-13T04:07:45.721Z,101558.88
2018-07-13T04:10:15.278Z,101555.11
2018-07-13T04:12:45.011Z,101562.66
2018-07-13T04:15:14.313Z,101554.25
2018-07-13T04:17:44.263Z,101559.73
2018-07-13T04:20:13.899Z,101565.17
2018-07-13T04:22:43.901Z,101563.05
2018-07-13T04:25:13.502Z,101559.73
2018-07-13T04:27:43.097Z,101567.67
2018-07-13T04:30:12.670Z,101564.70
2018-07-13T04:32:45.731Z,101566.80
2018-07-13T04:35:16.290Z,101570.12
2018-07-13T04:37:46.152Z,101574.36
2018-07-13T04:40:15.876Z,101577.28
2018-07-13T04:42:46.407Z,101577.30
2018-07-13T04:45:16.700Z,101575.20
2018-07-13T04:47:47.477Z,101577.27
2018-07-13T04:50:18.160Z,101575.16
2018-07-13T04:52:47.778Z,101575.58
2018-07-13T04:55:17.626Z,101576.39
2018-07-13T04:57:47.253Z,101574.73
2018-07-13T05:00:17.326Z,101581.00
2018-07-13T05:02:47.228Z,101576.84
2018-07-13T05:05:17.505Z,101581.02
2018-07-13T05:07:48.529Z,101576.43
2018-07-13T05:10:19.114Z,101585.22
2018-07-13T05:12:48.766Z,101578.92
2018-07-13T05:15:18.503Z,101581.44
2018-07-13T05:17:48.864Z,101574.69
2018-07-13T05:20:18.098Z,101574.67
2018-07-13T05:22:47.626Z,101576.77
2018-07-13T05:25:17.135Z,101580.92
2018-07-13T05:27:47.935Z,101581.78
2018-07-13T05:30:18.370Z,101590.57
2018-07-13T05:32:47.980Z,101585.14
2018-07-13T05:35:18.845Z,101582.16
2018-07-13T05:37:49.397Z,101588.83
2018-07-13T05:40:19.248Z,101585.48
2018-07-13T05:42:48.489Z,101592.63
2018-07-13T05:45:20.337Z,101598.53
2018-07-13T05:47:49.952Z,101595.56
2018-07-13T05:50:20.321Z,101594.73
2018-07-13T05:52:50.513Z,101603.92
2018-07-13T05:55:20.387Z,101606.87
2018-07-13T05:57:51.364Z,101598.09
2018-07-13T06:00:20.885Z,101604.34
2018-07-13T06:02:51.403Z,101606.05
2018-07-13T06:05:22.332Z,101604.84
2018-07-13T06:07:52.472Z,101607.73
2018-07-13T06:10:22.584Z,101607.34
2018-07-13T06:12:52.371Z,101601.41
2018-07-13T06:15:21.817Z,101605.16
2018-07-13T06:17:51.833Z,101607.30
2018-07-13T06:20:21.389Z,101603.94
2018-07-13T06:22:51.991Z,101601.36
2018-07-13T06:25:21.982Z,101608.89
2018-07-13T06:27:51.631Z,101602.97
2018-07-13T06:30:21.611Z,101608.22
2018-07-13T06:32:52.594Z,101620.52
2018-07-13T06:35:23.548Z,101611.26
2018-07-13T06:37:54.506Z,101616.71
2018-07-13T06:40:24.122Z,101606.97
2018-07-13T06:42:54.053Z,101607.41
2018-07-13T06:45:24.528Z,101605.67
2018-07-13T06:47:53.730Z,101605.63
2018-07-13T06:50:23.019Z,101603.50
2018-07-13T06:52:53.032Z,101608.62
2018-07-13T06:55:23.011Z,101609.80
2018-07-13T06:58:09.543Z,101612.77
2018-07-13T07:00:56.668Z,101611.95
2018-07-13T07:03:28.032Z,101613.98
2018-07-13T07:06:15.840Z,101617.23
2018-07-13T07:08:47.937Z,101624.73
2018-07-13T07:11:18.889Z,101610.27
2018-07-13T07:13:49.121Z,101613.84
2018-07-13T07:16:19.081Z,101615.62
2018-07-13T07:18:48.633Z,101610.05
2018-07-13T07:21:18.901Z,101617.57
2018-07-13T07:23:48.540Z,101613.03
2018-07-13T07:26:18.805Z,101620.09
2018-07-13T07:28:48.369Z,101619.28
2018-07-13T07:31:17.907Z,101625.80
2018-07-13T07:33:47.794Z,101625.86
2018-07-13T07:36:17.810Z,101622.84
2018-07-13T07:38:47.434Z,101624.89
2018-07-13T07:41:17.099Z,101617.20
2018-07-13T07:43:47.228Z,101620.11
2018-07-13T07:46:17.029Z,101610.13
2018-07-13T07:48:46.518Z,101620.50
2018-07-13T07:51:16.201Z,101622.56
2018-07-13T07:53:45.652Z,101612.58
2018-07-13T07:56:15.258Z,101618.73
2018-07-13T07:58:44.769Z,101620.08
2018-07-13T08:01:14.675Z,101618.12
2018-07-13T08:03:44.205Z,101617.76
2018-07-13T08:06:13.676Z,101621.62
2018-07-13T08:08:42.863Z,101617.52
2018-07-13T08:11:12.069Z,101613.59
2018-07-13T08:13:41.437Z,101619.81
2018-07-13T08:16:10.977Z,101619.97
2018-07-13T08:18:40.204Z,101619.89
2018-07-13T08:21:09.898Z,101618.28
2018-07-13T08:23:40.669Z,101622.42
2018-07-13T08:26:10.618Z,101617.55
2018-07-13T08:28:40.203Z,101617.28
2018-07-13T08:31:10.922Z,101622.80
2018-07-13T08:33:40.388Z,101628.20
2018-07-13T08:36:10.020Z,101619.34
2018-07-13T08:38:40.111Z,101621.11
2018-07-13T08:41:09.394Z,101631.03
2018-07-13T08:43:38.976Z,101638.92
2018-07-13T08:46:08.800Z,101630.98
2018-07-13T08:48:38.578Z,101623.31
2018-07-13T08:51:09.502Z,101625.35
2018-07-13T08:53:39.479Z,101629.64
2018-07-13T08:56:10.176Z,101633.68
2018-07-13T08:58:39.780Z,101638.07
2018-07-13T09:01:09.266Z,101633.68
2018-07-13T09:03:38.560Z,101634.14
2018-07-13T09:06:08.237Z,101639.53
2018-07-13T09:08:38.344Z,101645.11
2018-07-13T09:11:08.721Z,101636.98
2018-07-13T09:13:38.386Z,101643.47
2018-07-13T09:16:07.902Z,101642.40
2018-07-13T09:18:38.231Z,101649.41
2018-07-13T09:21:07.831Z,101654.61
2018-07-13T09:23:37.464Z,101650.63
2018-07-13T09:26:07.098Z,101657.57
2018-07-13T09:28:36.670Z,101653.48
2018-07-13T09:31:06.343Z,101653.17
2018-07-13T09:33:35.907Z,101651.89
2018-07-13T09:36:05.955Z,101651.28
2018-07-13T09:38:36.102Z,101653.11
2018-07-13T09:41:05.793Z,101652.67
2018-07-13T09:43:35.366Z,101652.73
2018-07-13T09:46:04.647Z,101646.91
2018-07-13T09:48:34.104Z,101641.02
2018-07-13T09:51:03.912Z,101646.75
2018-07-13T09:53:33.500Z,101646.63
2018-07-13T09:56:02.993Z,101650.08
2018-07-13T09:58:34.828Z,101654.01
2018-07-13T10:01:09.554Z,101657.39
2018-07-13T10:03:39.076Z,101651.91
2018-07-13T10:06:08.635Z,101660.05
2018-07-13T10:08:38.257Z,101663.06
2018-07-13T10:11:07.926Z,101659.28
2018-07-13T10:13:37.403Z,101652.98
2018-07-13T10:16:06.917Z,101657.09
2018-07-13T10:18:36.529Z,101657.91
2018-07-13T10:21:07.703Z,101649.36
2018-07-13T10:23:37.222Z,101655.55
2018-07-13T10:26:13.230Z,101645.25
2018-07-13T10:28:42.796Z,101648.06
2018-07-13T10:31:13.832Z,101645.25
2018-07-13T10:33:43.623Z,101652.12
2018-07-13T10:36:15.467Z,101647.58
2018-07-13T10:38:45.261Z,101650.16
2018-07-13T10:41:14.915Z,101652.04
2018-07-13T10:43:44.229Z,101648.71
2018-07-13T10:46:13.934Z,101653.59
2018-07-13T10:48:43.588Z,101661.77
2018-07-13T10:51:13.065Z,101661.70
2018-07-13T10:53:42.592Z,101660.84
2018-07-13T10:56:12.023Z,101650.59
2018-07-13T10:58:41.571Z,101668.97
2018-07-13T11:01:11.005Z,101656.25
2018-07-13T11:03:40.836Z,101664.52
2018-07-13T11:06:10.321Z,101657.48
2018-07-13T11:08:39.825Z,101657.42
2018-07-13T11:11:09.495Z,101657.97
2018-07-13T11:13:43.042Z,101660.95
2018-07-13T11:16:12.557Z,101655.75
2018-07-13T11:18:42.151Z,101658.77
2018-07-13T11:21:11.760Z,101651.91
2018-07-13T11:23:41.288Z,101654.66
2018-07-13T11:26:11.150Z,101648.98
2018-07-13T11:28:41.256Z,101647.11
2018-07-13T11:31:10.747Z,101653.23
2018-07-13T11:33:40.228Z,101642.63
2018-07-13T11:36:09.957Z,101643.82
2018-07-13T11:38:39.633Z,101647.77
2018-07-13T11:41:09.202Z,101644.42
2018-07-13T11:43:38.678Z,101641.72
2018-07-13T11:46:08.099Z,101646.20
2018-07-13T11:48:38.011Z,101645.39
2018-07-13T11:51:07.877Z,101641.76
2018-07-13T11:53:37.479Z,101641.86
2018-07-13T11:56:06.901Z,101637.00
2018-07-13T11:58:36.341Z,101639.87
2018-07-13T12:01:06.090Z,101638.02
2018-07-13T12:03:35.704Z,101628.25
2018-07-13T12:06:06.222Z,101636.66
2018-07-13T12:08:35.570Z,101623.77
2018-07-13T12:11:05.001Z,101634.14
2018-07-13T12:13:34.973Z,101630.31
2018-07-13T12:16:04.714Z,101645.05
2018-07-13T12:18:35.284Z,101637.63
2018-07-13T12:21:05.189Z,101636.29
2018-07-13T12:23:34.793Z,101642.95
2018-07-13T12:26:05.990Z,101636.42
2018-07-13T12:28:35.510Z,101630.48
2018-07-13T12:31:05.737Z,101628.44
2018-07-13T12:33:35.370Z,101628.02
2018-07-13T12:36:04.854Z,101638.36
2018-07-13T12:38:34.474Z,101628.20
2018-07-13T12:41:05.695Z,101631.72
2018-07-13T12:43:37.199Z,101631.27
2018-07-13T12:46:06.975Z,101632.80
2018-07-13T12:48:37.600Z,101636.23
2018-07-13T12:51:07.865Z,101641.01
2018-07-13T12:53:37.447Z,101642.89
2018-07-13T12:56:06.966Z,101630.14
2018-07-13T12:58:37.098Z,101626.81
2018-07-13T13:01:07.741Z,101638.27
2018-07-13T13:03:37.316Z,101628.16
2018-07-13T13:06:07.468Z,101633.25
2018-07-13T13:08:36.647Z,101625.89
2018-07-13T13:11:06.760Z,101630.29
2018-07-13T13:13:36.288Z,101638.81
2018-07-13T13:16:05.965Z,101634.05
2018-07-13T13:18:35.608Z,101640.48
2018-07-13T13:21:05.367Z,101636.87
2018-07-13T13:23:35.106Z,101636.63
2018-07-13T13:26:04.717Z,101636.20
2018-07-13T13:28:37.598Z,101626.77
2018-07-13T13:31:07.250Z,101633.63
2018-07-13T13:33:36.479Z,101632.50
2018-07-13T13:36:06.101Z,101635.05
2018-07-13T13:38:35.666Z,101632.45
2018-07-13T13:41:05.408Z,101637.12
2018-07-13T13:43:35.233Z,101626.51
2018-07-13T13:46:04.862Z,101627.23
2018-07-13T13:48:34.945Z,101626.98
2018-07-13T13:51:04.707Z,101622.21
2018-07-13T13:53:34.854Z,101616.17
2018-07-13T13:56:04.435Z,101618.81
2018-07-13T13:58:34.020Z,101627.11
2018-07-13T14:01:04.010Z,101626.08
2018-07-13T14:03:36.146Z,101629.27
2018-07-13T14:06:05.460Z,101626.47
2018-07-13T14:08:34.947Z,101628.31
2018-07-13T14:11:05.188Z,101632.24
2018-07-13T14:13:34.444Z,101625.73
2018-07-13T14:16:04.269Z,101626.31
2018-07-13T14:18:34.457Z,101627.09
2018-07-13T14:21:04.588Z,101638.85
2018-07-13T14:23:34.937Z,101634.08
2018-07-13T14:26:04.765Z,101633.00
2018-07-13T14:28:35.399Z,101635.02
2018-07-13T14:31:05.643Z,101633.98
2018-07-13T14:33:35.421Z,101634.84
2018-07-13T14:36:05.558Z,101640.27
2018-07-13T14:38:35.467Z,101639.89
2018-07-13T14:41:05.257Z,101630.09
2018-07-13T14:43:34.955Z,101627.20
2018-07-13T14:46:05.464Z,101638.23
2018-07-13T14:48:35.426Z,101633.34
2018-07-13T14:51:06.485Z,101625.67
2018-07-13T14:53:36.378Z,101629.07
2018-07-13T14:56:05.999Z,101627.95
2018-07-13T14:58:35.469Z,101627.27
2018-07-13T15:01:05.111Z,101629.65
2018-07-13T15:03:35.549Z,101627.97
2018-07-13T15:06:05.804Z,101623.87
2018-07-13T15:08:37.897Z,101624.94
2018-07-13T15:11:08.834Z,101624.98
2018-07-13T15:13:39.582Z,101635.50
2018-07-13T15:16:09.796Z,101628.95
2018-07-13T15:18:39.512Z,101630.40
2018-07-13T15:21:11.126Z,101628.89
2018-07-13T15:23:41.519Z,101639.84
2018-07-13T15:26:12.354Z,101638.61
2018-07-13T15:28:41.855Z,101639.20
2018-07-13T15:31:11.498Z,101637.94
2018-07-13T15:33:41.970Z,101628.66
2018-07-13T15:36:11.813Z,101630.35
2018-07-13T15:38:41.293Z,101644.23
2018-07-13T15:41:10.875Z,101639.22
2018-07-13T15:43:40.455Z,101641.14
2018-07-13T15:46:10.049Z,101638.34
2018-07-13T15:48:40.153Z,101643.39
2018-07-13T15:51:09.652Z,101643.42
2018-07-13T15:53:40.545Z,101636.87
2018-07-13T15:56:10.749Z,101643.38
2018-07-13T15:58:41.376Z,101638.97
2018-07-13T16:01:11.693Z,101632.09
2018-07-13T16:03:41.499Z,101638.51
2018-07-13T16:06:12.002Z,101651.38
2018-07-13T16:08:42.197Z,101645.66
2018-07-13T16:11:11.853Z,101646.05
2018-07-13T16:13:41.352Z,101641.34
2018-07-13T16:16:12.381Z,101633.08
2018-07-13T16:18:42.814Z,101641.52
2018-07-13T16:21:12.448Z,101644.61
2018-07-13T16:23:42.172Z,101642.88
2018-07-13T16:26:11.965Z,101648.97
2018-07-13T16:28:41.716Z,101635.32
2018-07-13T16:31:11.092Z,101646.81
2018-07-13T16:33:40.613Z,101637.33
2018-07-13T16:36:10.090Z,101638.02
2018-07-13T16:38:40.199Z,101633.28
2018-07-13T16:41:09.915Z,101637.10
2018-07-13T16:43:39.366Z,101635.22
2018-07-13T16:46:09.433Z,101637.47
2018-07-13T16:48:39.190Z,101637.59
2018-07-13T16:51:09.195Z,101638.66
2018-07-13T16:53:38.648Z,101638.73
2018-07-13T16:56:08.633Z,101635.55
2018-07-13T16:58:38.211Z,101643.47
2018-07-13T17:01:08.354Z,101642.76
2018-07-13T17:03:37.898Z,101645.80
2018-07-13T17:06:07.251Z,101644.27
2018-07-13T17:08:36.762Z,101644.05
2018-07-13T17:11:06.257Z,101639.53
2018-07-13T17:13:35.759Z,101655.36
2018-07-13T17:16:05.623Z,101647.00
2018-07-13T17:18:34.872Z,101651.30
2018-07-13T17:21:04.472Z,101653.69
2018-07-13T17:23:34.573Z,101654.91
2018-07-13T17:26:04.209Z,101663.61
2018-07-13T17:28:33.705Z,101653.52
2018-07-13T17:31:03.152Z,101657.81
2018-07-13T17:33:32.759Z,101656.83
2018-07-13T17:36:02.234Z,101660.78
2018-07-13T17:38:31.742Z,101667.55
2018-07-13T17:41:01.473Z,101660.78
2018-07-13T17:43:30.982Z,101659.98
2018-07-13T17:46:00.470Z,101661.69
2018-07-13T17:48:29.976Z,101663.78
2018-07-13T17:50:59.509Z,101663.78
2018-07-13T17:53:28.941Z,101653.94
2018-07-13T17:55:58.265Z,101656.23
2018-07-13T17:58:27.848Z,101668.66
2018-07-13T18:00:57.174Z,101661.15
2018-07-13T18:03:26.598Z,101666.76
2018-07-13T18:05:56.554Z,101664.21
2018-07-13T18:08:25.960Z,101662.53
2018-07-13T18:10:55.649Z,101664.70
2018-07-13T18:13:25.168Z,101665.55
2018-07-13T18:15:54.661Z,101668.75
2018-07-13T18:18:24.373Z,101660.94
2018-07-13T18:20:53.874Z,101664.70
2018-07-13T18:23:23.464Z,101665.65
2018-07-13T18:25:52.853Z,101668.25
2018-07-13T18:28:22.311Z,101679.64
2018-07-13T18:30:51.909Z,101676.10
2018-07-13T18:33:21.328Z,101674.42
2018-07-13T18:35:50.773Z,101673.74
2018-07-13T18:38:20.357Z,101678.84
2018-07-13T18:40:49.922Z,101677.20
2018-07-13T18:43:19.458Z,101686.97
2018-07-13T18:45:50.040Z,101688.19
2018-07-13T18:48:19.599Z,101688.61
2018-07-13T18:50:49.052Z,101691.39
2018-07-13T18:53:18.549Z,101692.48
2018-07-13T18:55:48.097Z,101691.67
2018-07-13T18:58:17.571Z,101695.02
2018-07-13T19:00:47.142Z,101697.30
2018-07-13T19:03:16.709Z,101706.18
2018-07-13T19:05:46.429Z,101704.25
2018-07-13T19:08:15.924Z,101698.75
2018-07-13T19:10:45.578Z,101700.75
2018-07-13T19:13:15.164Z,101696.47
2018-07-13T19:15:44.802Z,101702.75
2018-07-13T19:18:14.905Z,101710.39
2018-07-13T19:20:45.310Z,101707.95
2018-07-13T19:23:15.797Z,101710.52
2018-07-13T19:25:45.840Z,101717.73
2018-07-13T19:28:16.821Z,101716.55
2018-07-13T19:30:46.482Z,101715.27
2018-07-13T19:33:15.858Z,101723.27
2018-07-13T19:35:45.146Z,101720.77
2018-07-13T19:38:15.661Z,101724.59
2018-07-13T19:40:45.156Z,101723.34
2018-07-13T19:43:15.106Z,101727.64
2018-07-13T19:45:45.396Z,101733.95
2018-07-13T19:48:16.284Z,101725.55
2018-07-13T19:50:45.867Z,101728.95
2018-07-13T19:53:15.918Z,101737.34
2018-07-13T19:55:45.562Z,101737.36
2018-07-13T19:58:15.061Z,101739.53
2018-07-13T20:00:45.342Z,101742.91
2018-07-13T20:03:14.673Z,101745.84
2018-07-13T20:05:44.108Z,101747.09
2018-07-13T20:08:13.770Z,101751.76
2018-07-13T20:10:43.465Z,101750.96
2018-07-13T20:13:12.876Z,101752.61
2018-07-13T20:15:42.023Z,101755.95
2018-07-13T20:18:11.526Z,101756.38
2018-07-13T20:20:41.650Z,101763.52
2018-07-13T20:23:11.119Z,101766.05
2018-07-13T20:25:40.675Z,101768.57
2018-07-13T20:28:10.238Z,101768.99
2018-07-13T20:30:40.063Z,101770.25
2018-07-13T20:33:09.828Z,101782.02
2018-07-13T20:35:39.568Z,101777.83
2018-07-13T20:38:09.761Z,101774.45
2018-07-13T20:40:39.339Z,101781.59
2018-07-13T20:43:09.377Z,101779.07
2018-07-13T20:45:38.864Z,101782.42
2018-07-13T20:48:08.389Z,101786.65
2018-07-13T20:50:37.820Z,101779.08
2018-07-13T20:53:07.683Z,101773.22
2018-07-13T20:55:37.551Z,101782.03
2018-07-13T20:58:07.536Z,101775.31
2018-07-13T21:00:37.564Z,101776.98
2018-07-13T21:03:08.011Z,101784.13
2018-07-13T21:05:38.276Z,101786.63
2018-07-13T21:08:09.149Z,101790.00
2018-07-13T21:10:38.906Z,101791.66
2018-07-13T21:13:09.194Z,101789.59
2018-07-13T21:15:40.249Z,101797.96
2018-07-13T21:18:09.559Z,101791.25
2018-07-13T21:20:40.092Z,101792.10
2018-07-13T21:23:09.425Z,101790.42
2018-07-13T21:25:40.031Z,101789.98
2018-07-13T21:28:11.177Z,101789.17
2018-07-13T21:30:40.967Z,101784.55
2018-07-13T21:33:11.430Z,101787.47
2018-07-13T21:35:41.560Z,101785.36
2018-07-13T21:38:11.771Z,101783.25
2018-07-13T21:40:42.368Z,101784.08
2018-07-13T21:43:12.758Z,101780.71
2018-07-13T21:45:42.412Z,101787.83
2018-07-13T21:48:13.093Z,101781.49
2018-07-13T21:50:42.608Z,101782.73
2018-07-13T21:53:12.629Z,101789.02
2018-07-13T21:55:42.068Z,101791.48
2018-07-13T21:58:12.090Z,101791.02
2018-07-13T22:00:41.676Z,101787.65
2018-07-13T22:03:12.378Z,101784.30
2018-07-13T22:05:42.925Z,101778.42
2018-07-13T22:08:12.639Z,101783.45
2018-07-13T22:10:42.556Z,101775.45
2018-07-13T22:13:12.242Z,101778.80
2018-07-13T22:15:42.182Z,101785.87
2018-07-13T22:18:11.826Z,101781.72
2018-07-13T22:20:41.947Z,101782.50
2018-07-13T22:23:12.589Z,101782.92
2018-07-13T22:25:42.195Z,101783.33
2018-07-13T22:28:11.784Z,101781.66
2018-07-13T22:30:41.277Z,101777.45
2018-07-13T22:33:10.881Z,101777.85
2018-07-13T22:35:40.964Z,101782.02
2018-07-13T22:38:10.473Z,101782.41
2018-07-13T22:40:40.100Z,101790.36
2018-07-13T22:43:10.970Z,101780.70
2018-07-13T22:45:40.814Z,101783.19
2018-07-13T22:48:10.192Z,101785.30
2018-07-13T22:50:39.700Z,101783.16
2018-07-13T22:53:09.320Z,101782.73
2018-07-13T22:55:39.379Z,101782.27
2018-07-13T22:58:10.869Z,101779.33
2018-07-13T23:00:41.523Z,101784.79
2018-07-13T23:03:12.761Z,101785.98
2018-07-13T23:05:43.259Z,101786.00
2018-07-13T23:08:13.793Z,101787.15
2018-07-13T23:10:43.528Z,101790.20
2018-07-13T23:13:13.269Z,101790.16
2018-07-13T23:15:42.695Z,101785.95
2018-07-13T23:18:12.737Z,101784.28
2018-07-13T23:20:43.134Z,101783.97
2018-07-13T23:23:12.976Z,101782.59
2018-07-13T23:25:44.045Z,101780.39
2018-07-13T23:28:13.790Z,101783.31
2018-07-13T23:30:43.036Z,101781.16
2018-07-13T23:33:13.402Z,101786.67
2018-07-13T23:35:42.873Z,101785.03
2018-07-13T23:38:12.329Z,101785.39
2018-07-13T23:40:41.699Z,101780.75
2018-07-13T23:43:11.277Z,101778.27
2018-07-13T23:45:40.910Z,101781.55
2018-07-13T23:48:10.380Z,101785.31
2018-07-13T23:50:39.921Z,101786.56
2018-07-13T23:53:09.550Z,101784.88
2018-07-13T23:55:39.169Z,101784.88
2018-07-13T23:58:09.128Z,101784.41
